createdAt,value
2023-03-21T00:02:00.378Z,7.50
2023-03-21T00:04:40.896Z,7.50
2023-03-21T00:07:14.284Z,7.50
2023-03-21T00:09:47.425Z,7.50
2023-03-21T00:12:16.794Z,7.50
2023-03-21T00:14:46.022Z,7.50
2023-03-21T00:17:16.153Z,7.50
2023-03-21T00:19:46.506Z,7.50
2023-03-21T00:22:16.461Z,7.60
2023-03-21T00:24:48.892Z,7.60
2023-03-21T00:27:50.114Z,7.60
2023-03-21T00:30:10.307Z,7.60
2023-03-21T00:32:45.949Z,7.70
2023-03-21T00:35:57.459Z,7.70
2023-03-21T00:38:12.486Z,7.60
2023-03-21T00:40:48.849Z,7.70
2023-03-21T00:43:23.587Z,7.60
2023-03-21T00:45:53.339Z,7.70
2023-03-21T00:48:22.469Z,7.60
2023-03-21T00:50:55.705Z,7.60
2023-03-21T00:53:24.942Z,7.50
2023-03-21T00:55:55.352Z,7.50
2023-03-21T00:58:23.949Z,7.50
2023-03-21T01:00:53.928Z,7.50
2023-03-21T01:03:27.389Z,7.50
2023-03-21T01:06:06.242Z,7.50
2023-03-21T01:08:50.515Z,7.50
2023-03-21T01:11:24.931Z,7.50
2023-03-21T01:14:04.194Z,7.50
2023-03-21T01:16:40.156Z,7.50
2023-03-21T01:19:23.994Z,7.50
2023-03-21T01:21:55.939Z,7.50
2023-03-21T01:24:24.902Z,7.50
2023-03-21T01:26:54.854Z,7.50
2023-03-21T01:29:23.194Z,7.60
2023-03-21T01:31:52.428Z,7.60
2023-03-21T01:34:21.480Z,7.50
2023-03-21T01:36:50.357Z,7.50
2023-03-21T01:39:22.354Z,7.60
2023-03-21T01:41:52.159Z,7.50
2023-03-21T01:44:29.031Z,7.50
2023-03-21T01:47:10.575Z,7.50
2023-03-21T01:49:51.379Z,7.60
2023-03-21T01:52:36.931Z,7.60
2023-03-21T01:55:13.637Z,7.60
2023-03-21T01:58:07.061Z,7.60
2023-03-21T02:01:06.678Z,7.60
2023-03-21T02:03:52.222Z,7.60
2023-03-21T02:06:37.137Z,7.60
2023-03-21T02:09:17.838Z,7.60
2023-03-21T02:11:47.872Z,7.60
2023-03-21T02:14:28.906Z,7.60
2023-03-21T02:17:28.165Z,7.60
2023-03-21T02:20:38.297Z,7.60
2023-03-21T02:23:35.335Z,7.60
2023-03-21T02:26:41.256Z,7.60
2023-03-21T02:29:28.020Z,7.60
2023-03-21T02:32:16.527Z,7.50
2023-03-21T02:35:22.099Z,7.50
2023-03-21T02:38:00.873Z,7.50
2023-03-21T02:40:37.903Z,7.50
2023-03-21T02:43:23.084Z,7.60
2023-03-21T02:45:56.031Z,7.60
2023-03-21T02:48:38.431Z,7.60
2023-03-21T02:51:17.210Z,7.60
2023-03-21T02:54:04.554Z,7.60
2023-03-21T02:56:45.678Z,7.60
2023-03-21T02:59:17.396Z,7.60
2023-03-21T03:01:46.300Z,7.60
2023-03-21T03:04:23.282Z,7.60
2023-03-21T03:07:20.340Z,7.50
2023-03-21T03:10:05.009Z,7.50
2023-03-21T03:12:44.558Z,7.60
2023-03-21T03:15:22.885Z,7.50
2023-03-21T03:17:56.098Z,7.60
2023-03-21T03:20:33.859Z,7.60
2023-03-21T03:23:14.665Z,7.60
2023-03-21T03:25:52.533Z,7.60
2023-03-21T03:28:28.171Z,7.60
2023-03-21T03:31:09.108Z,7.60
2023-03-21T03:33:53.805Z,7.50
2023-03-21T03:36:32.622Z,7.50
2023-03-21T03:39:08.963Z,7.50
2023-03-21T03:44:39.235Z,7.50
2023-03-21T03:47:22.854Z,7.50
2023-03-21T03:50:04.336Z,7.50
2023-03-21T03:52:49.980Z,7.40
2023-03-21T03:55:27.466Z,7.40
2023-03-21T03:58:04.715Z,7.40
2023-03-21T04:00:36.032Z,7.20
2023-03-21T04:03:07.542Z,7.20
2023-03-21T04:05:36.580Z,7.20
2023-03-21T04:08:06.591Z,7.20
2023-03-21T04:10:43.358Z,7.10
2023-03-21T04:13:14.044Z,7.10
2023-03-21T04:16:12.967Z,7.10
2023-03-21T04:18:43.372Z,7.00
2023-03-21T04:21:14.714Z,7.00
2023-03-21T04:23:44.448Z,7.00
2023-03-21T04:26:14.142Z,7.00
2023-03-21T04:28:53.294Z,7.00
2023-03-21T04:31:28.677Z,6.90
2023-03-21T04:34:12.770Z,6.90
2023-03-21T04:36:49.818Z,6.90
2023-03-21T04:39:20.164Z,6.90
2023-03-21T04:41:51.520Z,6.90
2023-03-21T04:44:22.259Z,6.90
2023-03-21T04:46:51.832Z,6.90
2023-03-21T04:49:21.658Z,6.90
2023-03-21T04:51:51.766Z,6.90
2023-03-21T04:54:21.793Z,6.90
2023-03-21T04:56:52.269Z,6.90
2023-03-21T04:59:23.554Z,6.90
2023-03-21T05:01:52.709Z,6.90
2023-03-21T05:04:21.433Z,6.90
2023-03-21T05:06:50.053Z,6.90
2023-03-21T05:09:18.604Z,6.80
2023-03-21T05:11:48.688Z,6.90
2023-03-21T05:14:25.478Z,6.80
2023-03-21T05:17:00.190Z,6.80
2023-03-21T05:19:35.073Z,6.80
2023-03-21T05:22:08.090Z,6.80
2023-03-21T05:24:37.862Z,6.80
2023-03-21T05:27:09.552Z,6.70
2023-03-21T05:29:46.893Z,6.70
2023-03-21T05:32:15.409Z,6.80
2023-03-21T05:34:44.674Z,6.70
2023-03-21T05:37:13.173Z,6.70
2023-03-21T05:39:47.622Z,6.70
2023-03-21T05:42:23.635Z,6.60
2023-03-21T05:44:53.855Z,6.60
2023-03-21T05:47:27.936Z,6.60
2023-03-21T05:49:58.601Z,6.70
2023-03-21T05:52:28.571Z,6.70
2023-03-21T05:54:58.738Z,6.70
2023-03-21T05:57:29.653Z,6.70
2023-03-21T06:00:02.534Z,6.70
2023-03-21T06:02:32.415Z,6.70
2023-03-21T06:05:06.254Z,6.70
2023-03-21T06:07:35.756Z,6.70
2023-03-21T06:10:05.881Z,6.70
2023-03-21T06:12:35.193Z,6.80
2023-03-21T06:15:27.348Z,6.80
2023-03-21T06:18:03.441Z,6.90
2023-03-21T06:20:34.414Z,6.90
2023-03-21T06:23:09.536Z,7.00
2023-03-21T06:25:41.351Z,7.00
2023-03-21T06:28:10.005Z,7.10
2023-03-21T06:30:44.017Z,7.10
2023-03-21T06:33:17.513Z,7.10
2023-03-21T06:35:51.615Z,7.20
2023-03-21T06:38:21.647Z,7.20
2023-03-21T06:40:51.271Z,7.30
2023-03-21T06:43:20.143Z,7.30
2023-03-21T06:45:49.994Z,7.40
2023-03-21T06:48:18.796Z,7.40
2023-03-21T06:50:54.988Z,7.40
2023-03-21T06:53:27.695Z,7.50
2023-03-21T06:56:16.344Z,7.50
2023-03-21T06:58:47.771Z,7.50
2023-03-21T07:01:36.777Z,7.50
2023-03-21T07:04:08.803Z,7.60
2023-03-21T07:06:40.678Z,7.60
2023-03-21T07:09:09.355Z,7.70
2023-03-21T07:11:41.664Z,7.70
2023-03-21T07:14:11.385Z,7.70
2023-03-21T07:16:43.236Z,7.70
2023-03-21T07:19:12.949Z,7.80
2023-03-21T07:21:42.424Z,7.80
2023-03-21T07:24:14.833Z,7.80
2023-03-21T07:26:45.758Z,7.90
2023-03-21T07:29:14.394Z,7.90
2023-03-21T07:31:45.736Z,7.90
2023-03-21T07:34:18.027Z,8.00
2023-03-21T07:36:47.642Z,8.00
2023-03-21T07:39:19.905Z,8.00
2023-03-21T07:41:49.112Z,8.10
2023-03-21T07:44:33.776Z,8.10
2023-03-21T07:47:06.803Z,8.10
2023-03-21T07:49:38.088Z,8.20
2023-03-21T07:52:08.071Z,8.20
2023-03-21T07:54:38.310Z,8.20
2023-03-21T07:57:07.266Z,8.30
2023-03-21T07:59:37.399Z,8.30
2023-03-21T08:02:07.285Z,8.40
2023-03-21T08:04:36.305Z,8.40
2023-03-21T08:07:05.121Z,8.40
2023-03-21T08:09:36.963Z,8.50
2023-03-21T08:12:08.418Z,8.50
2023-03-21T08:14:38.124Z,8.50
2023-03-21T08:17:09.755Z,8.50
2023-03-21T08:19:38.556Z,8.60
2023-03-21T08:22:08.631Z,8.60
2023-03-21T08:24:37.960Z,8.60
2023-03-21T08:27:07.832Z,8.60
2023-03-21T08:29:43.456Z,8.70
2023-03-21T08:32:13.747Z,8.70
2023-03-21T08:34:43.434Z,8.70
2023-03-21T08:37:15.904Z,8.90
2023-03-21T08:39:44.397Z,8.90
2023-03-21T08:42:13.162Z,9.00
2023-03-21T08:44:41.967Z,9.00
2023-03-21T08:47:12.909Z,9.00
2023-03-21T08:49:42.598Z,9.10
2023-03-21T08:52:11.198Z,9.10
2023-03-21T08:54:45.034Z,9.20
2023-03-21T08:57:15.215Z,9.30
2023-03-21T08:59:44.004Z,9.40
2023-03-21T09:02:16.655Z,9.40
2023-03-21T09:04:47.584Z,9.50
2023-03-21T09:07:18.261Z,9.60
2023-03-21T09:09:58.125Z,9.50
2023-03-21T09:12:33.789Z,9.40
2023-03-21T09:15:04.829Z,9.40
2023-03-21T09:17:36.343Z,9.50
2023-03-21T09:20:11.246Z,9.60
2023-03-21T09:22:42.457Z,9.60
2023-03-21T09:25:11.606Z,9.70
2023-03-21T09:27:42.738Z,9.60
2023-03-21T09:30:13.072Z,9.70
2023-03-21T09:32:43.172Z,9.80
2023-03-21T09:35:12.893Z,9.80
2023-03-21T09:37:42.904Z,9.70
2023-03-21T09:40:21.408Z,9.70
2023-03-21T09:43:04.140Z,9.80
2023-03-21T09:45:38.698Z,9.80
2023-03-21T09:48:20.059Z,9.90
2023-03-21T09:50:49.862Z,9.90
2023-03-21T09:53:24.865Z,9.90
2023-03-21T09:55:55.398Z,10.00
2023-03-21T09:58:29.129Z,10.10
2023-03-21T10:01:07.776Z,10.10
2023-03-21T10:03:39.188Z,10.10
2023-03-21T10:06:15.972Z,10.10
2023-03-21T10:08:48.325Z,10.10
2023-03-21T10:11:23.805Z,10.10
2023-03-21T10:13:57.342Z,10.10
2023-03-21T10:16:31.958Z,10.20
2023-03-21T10:19:11.106Z,10.20
2023-03-21T10:21:59.701Z,10.20
2023-03-21T10:24:32.679Z,10.10
2023-03-21T10:27:05.616Z,10.10
2023-03-21T10:29:42.314Z,10.10
2023-03-21T10:32:13.565Z,10.10
2023-03-21T10:34:46.905Z,10.00
2023-03-21T10:37:16.944Z,10.00
2023-03-21T10:39:48.661Z,9.90
2023-03-21T10:42:21.749Z,9.90
2023-03-21T10:44:51.753Z,10.00
2023-03-21T10:47:28.598Z,10.00
2023-03-21T10:50:08.073Z,10.10
2023-03-21T10:52:40.671Z,10.10
2023-03-21T10:55:21.456Z,10.10
2023-03-21T10:57:53.912Z,10.20
2023-03-21T11:00:25.856Z,10.20
2023-03-21T11:02:55.754Z,10.20
2023-03-21T11:05:29.006Z,10.30
2023-03-21T11:08:03.061Z,10.30
2023-03-21T11:10:34.446Z,10.30
2023-03-21T11:13:08.928Z,10.40
2023-03-21T11:15:48.068Z,10.40
2023-03-21T11:18:20.843Z,10.50
2023-03-21T11:20:56.559Z,10.60
2023-03-21T11:23:30.336Z,10.70
2023-03-21T11:26:02.876Z,10.80
2023-03-21T11:28:37.983Z,11.00
2023-03-21T11:31:09.386Z,11.00
2023-03-21T11:33:40.946Z,11.10
2023-03-21T11:36:28.871Z,11.10
2023-03-21T11:38:59.907Z,11.10
2023-03-21T11:41:32.500Z,11.10
2023-03-21T11:44:02.912Z,11.00
2023-03-21T11:46:32.832Z,10.70
2023-03-21T11:49:03.448Z,10.90
2023-03-21T11:51:40.634Z,11.00
2023-03-21T11:54:14.864Z,11.10
2023-03-21T11:56:47.496Z,11.30
2023-03-21T11:59:35.547Z,11.50
2023-03-21T12:02:48.465Z,11.50
2023-03-21T12:05:25.077Z,11.50
2023-03-21T12:08:02.474Z,11.40
2023-03-21T12:10:42.608Z,11.40
2023-03-21T12:13:27.473Z,11.50
2023-03-21T12:16:06.606Z,11.40
2023-03-21T12:18:58.786Z,11.30
2023-03-21T12:21:36.376Z,11.30
2023-03-21T12:24:13.719Z,11.20
2023-03-21T12:26:50.115Z,11.30
2023-03-21T12:29:37.000Z,11.40
2023-03-21T12:32:30.397Z,11.50
2023-03-21T12:35:34.528Z,11.70
2023-03-21T12:38:17.786Z,11.60
2023-03-21T12:41:20.989Z,11.70
2023-03-21T12:43:55.407Z,11.80
2023-03-21T12:46:32.129Z,11.70
2023-03-21T12:49:03.626Z,11.70
2023-03-21T12:51:36.338Z,11.70
2023-03-21T12:54:14.554Z,11.70
2023-03-21T12:56:51.510Z,11.70
2023-03-21T12:59:26.957Z,11.70
2023-03-21T13:01:59.370Z,11.70
2023-03-21T13:04:43.302Z,11.80
2023-03-21T13:07:17.012Z,11.90
2023-03-21T13:09:46.491Z,12.00
2023-03-21T13:12:38.279Z,12.20
2023-03-21T13:15:25.766Z,12.20
2023-03-21T13:18:01.676Z,12.20
2023-03-21T13:20:40.131Z,12.10
2023-03-21T13:23:10.257Z,12.10
2023-03-21T13:25:44.688Z,12.10
2023-03-21T13:28:23.797Z,12.10
2023-03-21T13:30:52.784Z,12.10
2023-03-21T13:33:32.204Z,12.10
2023-03-21T13:36:07.570Z,12.20
2023-03-21T13:38:40.407Z,12.30
2023-03-21T13:41:16.889Z,12.30
2023-03-21T13:43:53.196Z,12.40
2023-03-21T13:46:52.488Z,12.40
2023-03-21T13:49:31.584Z,12.30
2023-03-21T13:52:01.607Z,12.30
2023-03-21T13:54:51.198Z,12.30
2023-03-21T13:57:40.689Z,12.40
2023-03-21T14:00:21.016Z,12.50
2023-03-21T14:02:58.246Z,12.50
2023-03-21T14:05:28.661Z,12.50
2023-03-21T14:08:12.699Z,12.40
2023-03-21T14:10:47.628Z,12.30
2023-03-21T14:13:21.562Z,12.20
2023-03-21T14:15:58.073Z,12.20
2023-03-21T14:18:52.978Z,12.30
2023-03-21T14:21:24.799Z,12.40
2023-03-21T14:24:05.237Z,12.50
2023-03-21T14:26:37.072Z,12.60
2023-03-21T14:29:23.040Z,12.60
2023-03-21T14:31:57.326Z,12.60
2023-03-21T14:34:27.702Z,12.70
2023-03-21T14:36:58.683Z,12.80
2023-03-21T14:39:29.577Z,12.80
2023-03-21T14:42:03.556Z,12.80
2023-03-21T14:44:51.252Z,12.90
2023-03-21T14:47:27.829Z,12.90
2023-03-21T14:49:57.578Z,12.90
2023-03-21T14:52:28.960Z,12.90
2023-03-21T14:54:57.840Z,12.90
2023-03-21T14:57:29.788Z,12.90
2023-03-21T15:00:02.013Z,12.90
2023-03-21T15:02:36.957Z,12.90
2023-03-21T15:05:11.333Z,12.90
2023-03-21T15:07:41.207Z,12.90
2023-03-21T15:10:17.834Z,13.00
2023-03-21T15:12:55.624Z,13.00
2023-03-21T15:15:36.833Z,13.10
2023-03-21T15:18:12.128Z,13.00
2023-03-21T15:20:42.235Z,12.90
2023-03-21T15:23:18.104Z,13.00
2023-03-21T15:25:47.486Z,13.00
2023-03-21T15:28:16.420Z,13.00
2023-03-21T15:30:52.058Z,13.00
2023-03-21T15:33:29.237Z,13.10
2023-03-21T15:35:59.119Z,13.20
2023-03-21T15:38:32.580Z,13.20
2023-03-21T15:41:29.337Z,13.20
2023-03-21T15:44:06.696Z,13.20
2023-03-21T15:46:42.492Z,13.30
2023-03-21T15:49:22.857Z,13.30
2023-03-21T15:51:55.562Z,13.30
2023-03-21T15:54:27.313Z,13.30
2023-03-21T15:56:59.613Z,13.30
2023-03-21T15:59:32.103Z,13.40
2023-03-21T16:02:01.850Z,13.50
2023-03-21T16:04:33.146Z,13.50
2023-03-21T16:07:03.688Z,13.50
2023-03-21T16:09:42.815Z,13.30
2023-03-21T16:12:18.763Z,13.30
2023-03-21T16:14:48.829Z,13.30
2023-03-21T16:17:51.707Z,13.30
2023-03-21T16:20:23.850Z,13.40
2023-03-21T16:22:54.009Z,13.40
2023-03-21T16:25:23.180Z,13.50
2023-03-21T16:27:53.355Z,13.60
2023-03-21T16:30:23.792Z,13.60
2023-03-21T16:32:55.669Z,13.60
2023-03-21T16:35:27.833Z,13.60
2023-03-21T16:37:56.764Z,13.50
2023-03-21T16:40:30.105Z,13.40
2023-03-21T16:42:59.335Z,13.30
2023-03-21T16:45:30.851Z,13.30
2023-03-21T16:48:00.353Z,13.40
2023-03-21T16:50:36.280Z,13.40
2023-03-21T16:53:08.192Z,13.40
2023-03-21T16:55:39.244Z,13.40
2023-03-21T16:58:08.799Z,13.40
2023-03-21T17:00:38.150Z,13.40
2023-03-21T17:03:15.309Z,13.50
2023-03-21T17:05:45.526Z,13.40
2023-03-21T17:08:19.643Z,13.40
2023-03-21T17:10:48.214Z,13.30
2023-03-21T17:13:16.877Z,13.20
2023-03-21T17:15:45.834Z,13.10
2023-03-21T17:18:14.412Z,13.00
2023-03-21T17:20:44.715Z,12.90
2023-03-21T17:23:14.128Z,12.80
2023-03-21T17:25:43.076Z,12.70
2023-03-21T17:28:12.042Z,12.50
2023-03-21T17:30:41.562Z,12.40
2023-03-21T17:33:11.241Z,12.30
2023-03-21T17:35:40.249Z,12.20
2023-03-21T17:38:16.716Z,12.10
2023-03-21T17:40:45.726Z,12.10
2023-03-21T17:43:18.577Z,12.10
2023-03-21T17:45:47.487Z,12.10
2023-03-21T17:48:16.100Z,12.10
2023-03-21T17:50:44.890Z,12.10
2023-03-21T17:53:15.095Z,12.10
2023-03-21T17:55:44.116Z,12.10
2023-03-21T17:58:13.008Z,12.10
2023-03-21T18:00:42.150Z,12.10
2023-03-21T18:03:11.731Z,12.10
2023-03-21T18:05:42.237Z,12.10
2023-03-21T18:08:13.126Z,12.10
2023-03-21T18:10:44.576Z,12.00
2023-03-21T18:13:15.367Z,11.90
2023-03-21T18:15:45.068Z,11.90
2023-03-21T18:18:15.948Z,11.90
2023-03-21T18:20:52.127Z,11.80
2023-03-21T18:23:24.327Z,11.80
2023-03-21T18:25:57.490Z,11.80
2023-03-21T18:28:27.181Z,11.70
2023-03-21T18:31:09.589Z,11.70
2023-03-21T18:33:45.348Z,11.70
2023-03-21T18:36:24.110Z,11.60
2023-03-21T18:38:55.121Z,11.60
2023-03-21T18:41:25.349Z,11.50
2023-03-21T18:44:09.092Z,11.50
2023-03-21T18:46:47.280Z,11.50
2023-03-21T18:52:05.657Z,11.40
2023-03-21T18:54:35.018Z,11.40
2023-03-21T18:57:34.653Z,11.40
2023-03-21T18:59:54.765Z,11.40
2023-03-21T19:02:26.066Z,11.40
2023-03-21T19:04:55.598Z,11.40
2023-03-21T19:07:25.243Z,11.40
2023-03-21T19:10:16.099Z,11.40
2023-03-21T19:12:47.755Z,11.40
2023-03-21T19:15:19.457Z,11.40
2023-03-21T19:20:38.314Z,11.40
2023-03-21T19:23:09.715Z,11.30
2023-03-21T19:25:39.982Z,11.30
2023-03-21T19:28:11.233Z,11.30
2023-03-21T19:30:49.075Z,11.30
2023-03-21T19:33:20.188Z,11.30
2023-03-21T19:35:58.916Z,11.30
2023-03-21T19:38:35.854Z,11.20
2023-03-21T19:41:05.247Z,11.10
2023-03-21T19:43:35.579Z,11.00
2023-03-21T19:46:04.428Z,10.90
2023-03-21T19:48:33.220Z,10.90
2023-03-21T19:53:52.310Z,10.90
2023-03-21T19:56:26.287Z,10.80
2023-03-21T19:58:57.783Z,10.90
2023-03-21T20:01:28.802Z,10.90
2023-03-21T20:03:58.052Z,10.90
2023-03-21T20:06:27.347Z,10.60
2023-03-21T20:11:47.388Z,10.20
2023-03-21T20:14:18.070Z,10.10
2023-03-21T20:16:46.798Z,10.00
2023-03-21T20:19:17.333Z,9.90
2023-03-21T20:21:55.405Z,10.00
2023-03-21T20:24:27.743Z,10.00
2023-03-21T20:26:57.351Z,10.10
2023-03-21T20:32:17.658Z,10.20
2023-03-21T20:34:46.701Z,10.20
2023-03-21T20:37:16.799Z,10.20
2023-03-21T20:39:45.870Z,10.20
2023-03-21T20:42:14.702Z,10.20
2023-03-21T20:44:57.815Z,10.10
2023-03-21T20:47:28.209Z,10.10
2023-03-21T20:49:57.156Z,10.00
2023-03-21T20:55:15.670Z,10.00
2023-03-21T20:57:48.634Z,9.80
2023-03-21T21:00:22.459Z,9.60
2023-03-21T21:02:53.701Z,9.50
2023-03-21T21:05:28.658Z,9.30
2023-03-21T21:07:59.131Z,9.20
2023-03-21T21:10:28.772Z,9.20
2023-03-21T21:12:58.873Z,9.10
2023-03-21T21:15:30.290Z,9.20
2023-03-21T21:18:07.869Z,9.10
2023-03-21T21:20:38.146Z,9.10
2023-03-21T21:23:09.569Z,9.10
2023-03-21T21:25:39.116Z,9.10
2023-03-21T21:28:09.721Z,9.00
2023-03-21T21:30:41.720Z,8.80
2023-03-21T21:33:10.868Z,8.60
2023-03-21T21:35:47.707Z,8.50
2023-03-21T21:38:19.588Z,8.40
2023-03-21T21:40:49.225Z,8.40
2023-03-21T21:43:19.235Z,8.40
2023-03-21T21:45:50.841Z,8.50
2023-03-21T21:48:19.495Z,8.70
2023-03-21T21:50:54.349Z,8.60
2023-03-21T21:53:23.507Z,8.60
2023-03-21T21:55:52.736Z,8.50
2023-03-21T21:58:21.961Z,8.60
2023-03-21T22:00:52.020Z,8.60
2023-03-21T22:03:22.421Z,8.70
2023-03-21T22:05:52.362Z,8.80
2023-03-21T22:08:23.253Z,8.90
2023-03-21T22:10:51.984Z,9.00
2023-03-21T22:13:21.167Z,9.00
2023-03-21T22:15:52.344Z,9.00
2023-03-21T22:18:21.350Z,9.10
2023-03-21T22:20:50.128Z,9.10
2023-03-21T22:23:19.514Z,9.00
2023-03-21T22:25:52.619Z,9.00
2023-03-21T22:28:22.343Z,9.00
2023-03-21T22:30:54.653Z,9.00
2023-03-21T22:33:24.645Z,9.00
2023-03-21T22:35:54.249Z,9.00
2023-03-21T22:38:25.576Z,9.00
2023-03-21T22:40:57.323Z,8.90
2023-03-21T22:43:26.327Z,8.90
2023-03-21T22:45:57.691Z,9.00
2023-03-21T22:48:30.487Z,9.00
2023-03-21T22:51:00.415Z,8.90
2023-03-21T22:53:30.208Z,8.90
2023-03-21T22:55:59.556Z,9.00
2023-03-21T22:58:28.269Z,9.00
2023-03-21T23:01:05.232Z,9.00
2023-03-21T23:03:34.264Z,9.00
2023-03-21T23:06:04.121Z,9.10
2023-03-21T23:08:34.064Z,9.10
2023-03-21T23:11:08.549Z,9.10
2023-03-21T23:13:37.706Z,9.00
2023-03-21T23:16:09.492Z,8.90
2023-03-21T23:18:38.909Z,8.70
2023-03-21T23:21:13.610Z,8.40
2023-03-21T23:23:44.076Z,8.20
2023-03-21T23:26:13.497Z,8.00
2023-03-21T23:28:42.356Z,7.80
2023-03-21T23:31:14.618Z,7.50
2023-03-21T23:33:43.366Z,7.30
2023-03-21T23:36:15.825Z,7.10
2023-03-21T23:38:45.967Z,6.80
2023-03-21T23:41:16.579Z,6.70
2023-03-21T23:43:45.867Z,6.50
2023-03-21T23:46:17.222Z,6.40
2023-03-21T23:48:46.513Z,6.30
2023-03-21T23:51:17.188Z,6.10
2023-03-21T23:53:46.552Z,6.00
2023-03-21T23:56:16.749Z,5.90
2023-03-21T23:58:45.912Z,5.80
